New Berlin, Pennsylvania
Current Conditions -  °F | °C
As of 11:53 PM on Friday 19 Dec 2014 (Local Time) from KSEG Reporting Station
Overcast Overcast  
Wind Chill: 25°   Ceiling: 4200
Heat Index: 33°   Visibility: 10mi
Dew Point: 20°   Wind: 9mph
Humidity: 59%   Direction: 330°NNW
Pressure: 30.22"   Gusts: NA
Location:  40.88°N, 76.99°W
Report Text: KSEG 200453Z AUTO 33008KT 10SM OVC042 01/M07 A3022 RMK AO2 SLP239 T00061067 400441011
Loading
Personal Weather Stations






























Interactive Weather Map New forecast layout! Learn more

10-Day Weather Forecast

Advertisements
Track Severe Weather on mobile